To NAV CANADA Home Page Login to a new session Search on AWWS site Disclaimer Vers la page française équivalente Tips FAQ What's new on the site To the Forecasts and Observations / NOTAM section To "File a Flight Plan" website Publications and other links Update of the User's profile FIC Telephone Numbers My Weather Data Folder Route Weather Data Regional Weather Data Local Weather Data To the Forecasts and Observations / NOTAM section
Request Generated 10/19/2018 at 16:05:37 UTC . Weather information available at that time is displayed.

METAR/TAF

GREENWOOD/NS    

METAR CYZX 191600Z 27017G25KT 15SM FEW040 FEW250 05/M04 A3011 RMK SC2CI1 SLP197=
METAR CYZX 191500Z 28014G19KT 15SM FEW040 04/M05 A3011 RMK SC2 SLP198=
METAR CYZX 191400Z 28016KT 15SM FEW040 FEW250 03/M05 A3012 RMK SC2CI1 SLP201=

TAF CYZX 191130Z 1912/2012 29012G22KT P6SM FEW040 SCT090 TEMPO
1915/1919 BKN040
FM191900 23010G20KT P6SM BKN030
FM200300 18010KT P6SM BKN025 OVC200
FM201100 21012KT P6SM SCT015 OVC025
RMK NXT FCST BY 191800Z=
Your time UTC time
Weather data provided by Environment Canada and NAV CANADA